sensor_id;sensor_type;location;lat;lon;timestamp;P1;durP1;ratioP1;P2;durP2;ratioP2
3967;SDS011;9221;42.646;23.380;2022-12-10T00:00:17;27.07;;;6.27;;
3967;SDS011;9221;42.646;23.380;2022-12-10T00:02:42;16.87;;;6.23;;
3967;SDS011;9221;42.646;23.380;2022-12-10T00:05:08;18.57;;;6.00;;
3967;SDS011;9221;42.646;23.380;2022-12-10T00:07:33;26.37;;;6.40;;
3967;SDS011;9221;42.646;23.380;2022-12-10T00:09:59;26.43;;;5.80;;
3967;SDS011;9221;42.646;23.380;2022-12-10T00:12:24;22.77;;;6.30;;
3967;SDS011;9221;42.646;23.380;2022-12-10T00:14:49;20.80;;;6.47;;
3967;SDS011;9221;42.646;23.380;2022-12-10T00:17:15;22.90;;;6.80;;
3967;SDS011;9221;42.646;23.380;2022-12-10T00:19:40;23.90;;;6.63;;
3967;SDS011;9221;42.646;23.380;2022-12-10T00:22:06;22.33;;;6.17;;
3967;SDS011;9221;42.646;23.380;2022-12-10T00:24:31;14.00;;;5.53;;
3967;SDS011;9221;42.646;23.380;2022-12-10T00:26:56;19.40;;;6.10;;
3967;SDS011;9221;42.646;23.380;2022-12-10T00:29:22;19.23;;;5.50;;
3967;SDS011;9221;42.646;23.380;2022-12-10T00:31:47;26.90;;;5.43;;
3967;SDS011;9221;42.646;23.380;2022-12-10T00:34:13;20.03;;;6.17;;
3967;SDS011;9221;42.646;23.380;2022-12-10T00:36:42;27.50;;;6.32;;
3967;SDS011;9221;42.646;23.380;2022-12-10T00:39:11;15.67;;;5.90;;
3967;SDS011;9221;42.646;23.380;2022-12-10T00:41:39;17.37;;;5.47;;
3967;SDS011;9221;42.646;23.380;2022-12-10T00:44:04;22.57;;;5.53;;
3967;SDS011;9221;42.646;23.380;2022-12-10T00:46:30;20.53;;;5.80;;
3967;SDS011;9221;42.646;23.380;2022-12-10T00:48:55;20.27;;;5.80;;
3967;SDS011;9221;42.646;23.380;2022-12-10T00:51:23;24.67;;;5.90;;
3967;SDS011;9221;42.646;23.380;2022-12-10T00:53:50;16.50;;;4.70;;
3967;SDS011;9221;42.646;23.380;2022-12-10T00:56:18;16.47;;;5.93;;
3967;SDS011;9221;42.646;23.380;2022-12-10T00:58:46;15.77;;;5.43;;
3967;SDS011;9221;42.646;23.380;2022-12-10T01:03:38;25.43;;;6.90;;
3967;SDS011;9221;42.646;23.380;2022-12-10T01:06:11;21.13;;;5.57;;
3967;SDS011;9221;42.646;23.380;2022-12-10T01:08:38;15.33;;;5.20;;
3967;SDS011;9221;42.646;23.380;2022-12-10T01:11:04;21.70;;;6.23;;
3967;SDS011;9221;42.646;23.380;2022-12-10T01:13:30;23.60;;;5.90;;
3967;SDS011;9221;42.646;23.380;2022-12-10T01:15:56;19.50;;;5.10;;
3967;SDS011;9221;42.646;23.380;2022-12-10T01:18:21;27.00;;;6.07;;
3967;SDS011;9221;42.646;23.380;2022-12-10T01:20:46;20.00;;;6.00;;
3967;SDS011;9221;42.646;23.380;2022-12-10T01:23:12;16.10;;;5.67;;
3967;SDS011;9221;42.646;23.380;2022-12-10T01:25:37;26.67;;;6.20;;
3967;SDS011;9221;42.646;23.380;2022-12-10T01:28:03;17.97;;;5.40;;
3967;SDS011;9221;42.646;23.380;2022-12-10T01:30:28;16.63;;;6.00;;
3967;SDS011;9221;42.646;23.380;2022-12-10T01:32:53;18.87;;;5.97;;
3967;SDS011;9221;42.646;23.380;2022-12-10T01:35:19;25.33;;;5.90;;
3967;SDS011;9221;42.646;23.380;2022-12-10T01:37:44;18.93;;;5.70;;
3967;SDS011;9221;42.646;23.380;2022-12-10T01:40:10;23.60;;;5.73;;
3967;SDS011;9221;42.646;23.380;2022-12-10T01:42:35;18.83;;;5.30;;
3967;SDS011;9221;42.646;23.380;2022-12-10T01:45:03;22.73;;;5.90;;
3967;SDS011;9221;42.646;23.380;2022-12-10T01:47:31;17.97;;;5.40;;
3967;SDS011;9221;42.646;23.380;2022-12-10T01:49:57;17.30;;;5.43;;
3967;SDS011;9221;42.646;23.380;2022-12-10T01:52:23;19.83;;;6.67;;
3967;SDS011;9221;42.646;23.380;2022-12-10T01:54:49;24.17;;;5.17;;
3967;SDS011;9221;42.646;23.380;2022-12-10T01:57:16;16.73;;;5.50;;
3967;SDS011;9221;42.646;23.380;2022-12-10T01:59:46;17.53;;;5.40;;
3967;SDS011;9221;42.646;23.380;2022-12-10T02:07:21;13.60;;;5.30;;
3967;SDS011;9221;42.646;23.380;2022-12-10T02:20:38;18.47;;;5.23;;
3967;SDS011;9221;42.646;23.380;2022-12-10T02:25:59;13.50;;;4.07;;
3967;SDS011;9221;42.646;23.380;2022-12-10T02:29:01;18.13;;;4.00;;
3967;SDS011;9221;42.646;23.380;2022-12-10T02:31:29;14.27;;;4.05;;
3967;SDS011;9221;42.646;23.380;2022-12-10T02:33:58;12.07;;;4.27;;
3967;SDS011;9221;42.646;23.380;2022-12-10T02:36:30;12.30;;;4.40;;
3967;SDS011;9221;42.646;23.380;2022-12-10T02:39:00;31.50;;;5.07;;
3967;SDS011;9221;42.646;23.380;2022-12-10T02:41:32;13.53;;;4.63;;
3967;SDS011;9221;42.646;23.380;2022-12-10T02:44:02;14.83;;;4.30;;
3967;SDS011;9221;42.646;23.380;2022-12-10T02:46:31;16.00;;;4.83;;
3967;SDS011;9221;42.646;23.380;2022-12-10T02:49:00;18.33;;;4.97;;
3967;SDS011;9221;42.646;23.380;2022-12-10T02:51:28;14.33;;;4.63;;
3967;SDS011;9221;42.646;23.380;2022-12-10T02:54:07;20.73;;;4.70;;
3967;SDS011;9221;42.646;23.380;2022-12-10T02:56:54;19.83;;;5.10;;
3967;SDS011;9221;42.646;23.380;2022-12-10T03:07:03;11.33;;;4.37;;
3967;SDS011;9221;42.646;23.380;2022-12-10T03:09:35;11.77;;;4.10;;
3967;SDS011;9221;42.646;23.380;2022-12-10T03:12:11;17.77;;;4.63;;
3967;SDS011;9221;42.646;23.380;2022-12-10T03:14:44;16.67;;;4.53;;
3967;SDS011;9221;42.646;23.380;2022-12-10T03:17:10;7.43;;;3.57;;
3967;SDS011;9221;42.646;23.380;2022-12-10T03:19:45;12.53;;;4.00;;
3967;SDS011;9221;42.646;23.380;2022-12-10T03:22:15;9.93;;;3.90;;
3967;SDS011;9221;42.646;23.380;2022-12-10T03:24:44;17.23;;;3.60;;
3967;SDS011;9221;42.646;23.380;2022-12-10T03:27:10;9.17;;;4.00;;
3967;SDS011;9221;42.646;23.380;2022-12-10T03:29:39;18.43;;;4.47;;
3967;SDS011;9221;42.646;23.380;2022-12-10T03:32:09;12.45;;;3.67;;
3967;SDS011;9221;42.646;23.380;2022-12-10T03:34:35;11.95;;;3.72;;
3967;SDS011;9221;42.646;23.380;2022-12-10T03:37:02;17.13;;;3.50;;
3967;SDS011;9221;42.646;23.380;2022-12-10T03:39:28;12.43;;;3.33;;
3967;SDS011;9221;42.646;23.380;2022-12-10T03:41:54;10.10;;;3.43;;
3967;SDS011;9221;42.646;23.380;2022-12-10T03:44:29;13.30;;;4.13;;
3967;SDS011;9221;42.646;23.380;2022-12-10T03:46:57;13.93;;;4.47;;
3967;SDS011;9221;42.646;23.380;2022-12-10T03:49:23;12.93;;;3.30;;
3967;SDS011;9221;42.646;23.380;2022-12-10T03:51:48;16.53;;;4.50;;
3967;SDS011;9221;42.646;23.380;2022-12-10T03:54:14;13.02;;;3.95;;
3967;SDS011;9221;42.646;23.380;2022-12-10T03:56:39;12.43;;;3.40;;
3967;SDS011;9221;42.646;23.380;2022-12-10T03:59:05;9.63;;;3.47;;
3967;SDS011;9221;42.646;23.380;2022-12-10T04:01:30;7.77;;;3.17;;
3967;SDS011;9221;42.646;23.380;2022-12-10T04:03:56;9.17;;;3.23;;
3967;SDS011;9221;42.646;23.380;2022-12-10T04:06:21;9.93;;;2.70;;
3967;SDS011;9221;42.646;23.380;2022-12-10T04:08:47;17.53;;;4.10;;
3967;SDS011;9221;42.646;23.380;2022-12-10T04:11:13;14.50;;;3.87;;
3967;SDS011;9221;42.646;23.380;2022-12-10T04:13:39;10.27;;;3.43;;
3967;SDS011;9221;42.646;23.380;2022-12-10T04:16:24;11.87;;;3.37;;
3967;SDS011;9221;42.646;23.380;2022-12-10T04:18:54;15.00;;;3.10;;
3967;SDS011;9221;42.646;23.380;2022-12-10T04:21:24;15.27;;;3.70;;
3967;SDS011;9221;42.646;23.380;2022-12-10T04:24:09;10.90;;;3.03;;
3967;SDS011;9221;42.646;23.380;2022-12-10T04:26:54;12.63;;;3.07;;
3967;SDS011;9221;42.646;23.380;2022-12-10T04:29:22;9.93;;;3.70;;
3967;SDS011;9221;42.646;23.380;2022-12-10T04:31:49;15.90;;;3.63;;
3967;SDS011;9221;42.646;23.380;2022-12-10T04:34:15;18.73;;;3.83;;
3967;SDS011;9221;42.646;23.380;2022-12-10T04:36:40;6.63;;;2.83;;
3967;SDS011;9221;42.646;23.380;2022-12-10T04:39:06;11.50;;;3.30;;
3967;SDS011;9221;42.646;23.380;2022-12-10T04:41:32;13.23;;;3.43;;
3967;SDS011;9221;42.646;23.380;2022-12-10T04:43:57;10.93;;;3.83;;
3967;SDS011;9221;42.646;23.380;2022-12-10T04:46:22;18.50;;;4.00;;
3967;SDS011;9221;42.646;23.380;2022-12-10T04:48:48;11.30;;;3.37;;
3967;SDS011;9221;42.646;23.380;2022-12-10T04:51:13;10.97;;;3.63;;
3967;SDS011;9221;42.646;23.380;2022-12-10T04:53:39;18.03;;;3.20;;
3967;SDS011;9221;42.646;23.380;2022-12-10T04:56:04;18.60;;;4.47;;
3967;SDS011;9221;42.646;23.380;2022-12-10T04:58:31;16.50;;;4.63;;
3967;SDS011;9221;42.646;23.380;2022-12-10T05:01:00;12.60;;;4.23;;
3967;SDS011;9221;42.646;23.380;2022-12-10T05:03:27;26.25;;;4.60;;
3967;SDS011;9221;42.646;23.380;2022-12-10T05:05:53;15.43;;;4.10;;
3967;SDS011;9221;42.646;23.380;2022-12-10T05:08:18;10.00;;;4.13;;
3967;SDS011;9221;42.646;23.380;2022-12-10T05:10:43;13.43;;;3.77;;
3967;SDS011;9221;42.646;23.380;2022-12-10T05:13:09;30.57;;;4.27;;
3967;SDS011;9221;42.646;23.380;2022-12-10T05:15:37;16.33;;;4.03;;
3967;SDS011;9221;42.646;23.380;2022-12-10T05:18:03;9.03;;;3.90;;
3967;SDS011;9221;42.646;23.380;2022-12-10T05:20:28;8.40;;;4.00;;
3967;SDS011;9221;42.646;23.380;2022-12-10T05:22:54;15.73;;;3.03;;
3967;SDS011;9221;42.646;23.380;2022-12-10T05:25:38;9.83;;;3.57;;
3967;SDS011;9221;42.646;23.380;2022-12-10T05:28:18;9.30;;;3.00;;
3967;SDS011;9221;42.646;23.380;2022-12-10T05:30:44;12.80;;;3.43;;
3967;SDS011;9221;42.646;23.380;2022-12-10T05:33:10;13.60;;;4.40;;
3967;SDS011;9221;42.646;23.380;2022-12-10T05:35:35;13.17;;;3.70;;
3967;SDS011;9221;42.646;23.380;2022-12-10T05:38:01;9.30;;;3.27;;
3967;SDS011;9221;42.646;23.380;2022-12-10T05:40:26;9.33;;;3.60;;
3967;SDS011;9221;42.646;23.380;2022-12-10T05:42:52;5.80;;;3.17;;
3967;SDS011;9221;42.646;23.380;2022-12-10T05:45:17;7.40;;;3.53;;
3967;SDS011;9221;42.646;23.380;2022-12-10T05:47:42;11.00;;;4.50;;
3967;SDS011;9221;42.646;23.380;2022-12-10T05:50:08;21.20;;;4.53;;
3967;SDS011;9221;42.646;23.380;2022-12-10T05:52:33;21.07;;;4.70;;
3967;SDS011;9221;42.646;23.380;2022-12-10T05:54:59;15.47;;;4.50;;
3967;SDS011;9221;42.646;23.380;2022-12-10T05:57:24;16.67;;;4.37;;
3967;SDS011;9221;42.646;23.380;2022-12-10T05:59:49;12.10;;;4.30;;
3967;SDS011;9221;42.646;23.380;2022-12-10T06:02:15;15.10;;;4.70;;
3967;SDS011;9221;42.646;23.380;2022-12-10T06:04:40;12.97;;;4.80;;
3967;SDS011;9221;42.646;23.380;2022-12-10T06:07:06;31.33;;;6.23;;
3967;SDS011;9221;42.646;23.380;2022-12-10T06:09:31;24.03;;;5.50;;
3967;SDS011;9221;42.646;23.380;2022-12-10T06:11:56;12.07;;;4.50;;
3967;SDS011;9221;42.646;23.380;2022-12-10T06:14:22;11.43;;;4.93;;
3967;SDS011;9221;42.646;23.380;2022-12-10T06:16:47;10.80;;;4.93;;
3967;SDS011;9221;42.646;23.380;2022-12-10T06:19:13;13.17;;;4.90;;
3967;SDS011;9221;42.646;23.380;2022-12-10T06:21:38;16.80;;;5.13;;
3967;SDS011;9221;42.646;23.380;2022-12-10T06:24:04;18.80;;;5.10;;
3967;SDS011;9221;42.646;23.380;2022-12-10T06:26:29;15.00;;;4.87;;
3967;SDS011;9221;42.646;23.380;2022-12-10T06:28:55;21.27;;;6.00;;
3967;SDS011;9221;42.646;23.380;2022-12-10T06:31:21;14.77;;;5.17;;
3967;SDS011;9221;42.646;23.380;2022-12-10T06:33:46;15.13;;;5.43;;
3967;SDS011;9221;42.646;23.380;2022-12-10T06:36:13;20.53;;;5.20;;
3967;SDS011;9221;42.646;23.380;2022-12-10T06:38:40;20.73;;;5.53;;
3967;SDS011;9221;42.646;23.380;2022-12-10T06:41:07;18.37;;;6.77;;
3967;SDS011;9221;42.646;23.380;2022-12-10T06:43:34;11.17;;;5.20;;
3967;SDS011;9221;42.646;23.380;2022-12-10T06:46:03;14.80;;;5.70;;
3967;SDS011;9221;42.646;23.380;2022-12-10T06:48:31;24.13;;;5.50;;
3967;SDS011;9221;42.646;23.380;2022-12-10T06:50:56;15.50;;;5.57;;
3967;SDS011;9221;42.646;23.380;2022-12-10T06:53:21;21.40;;;5.63;;
3967;SDS011;9221;42.646;23.380;2022-12-10T06:55:47;27.13;;;5.60;;
3967;SDS011;9221;42.646;23.380;2022-12-10T06:58:12;30.83;;;5.73;;
3967;SDS011;9221;42.646;23.380;2022-12-10T07:00:37;20.83;;;7.20;;
3967;SDS011;9221;42.646;23.380;2022-12-10T07:03:03;13.20;;;5.63;;
3967;SDS011;9221;42.646;23.380;2022-12-10T07:05:28;20.07;;;7.20;;
3967;SDS011;9221;42.646;23.380;2022-12-10T07:07:54;16.07;;;6.97;;
3967;SDS011;9221;42.646;23.380;2022-12-10T07:10:19;19.90;;;6.60;;
3967;SDS011;9221;42.646;23.380;2022-12-10T07:12:44;16.33;;;7.00;;
3967;SDS011;9221;42.646;23.380;2022-12-10T07:15:10;18.03;;;5.57;;
3967;SDS011;9221;42.646;23.380;2022-12-10T07:17:35;20.13;;;5.97;;
3967;SDS011;9221;42.646;23.380;2022-12-10T07:20:01;16.60;;;6.43;;
3967;SDS011;9221;42.646;23.380;2022-12-10T07:22:27;21.00;;;7.00;;
3967;SDS011;9221;42.646;23.380;2022-12-10T07:24:52;24.53;;;7.13;;
3967;SDS011;9221;42.646;23.380;2022-12-10T07:27:18;15.30;;;5.20;;
3967;SDS011;9221;42.646;23.380;2022-12-10T07:29:43;21.37;;;6.37;;
3967;SDS011;9221;42.646;23.380;2022-12-10T07:32:09;18.03;;;6.57;;
3967;SDS011;9221;42.646;23.380;2022-12-10T07:34:35;22.53;;;6.93;;
3967;SDS011;9221;42.646;23.380;2022-12-10T07:37:00;19.33;;;6.10;;
3967;SDS011;9221;42.646;23.380;2022-12-10T07:39:26;16.30;;;6.13;;
3967;SDS011;9221;42.646;23.380;2022-12-10T07:41:52;16.10;;;6.90;;
3967;SDS011;9221;42.646;23.380;2022-12-10T07:44:21;20.63;;;6.50;;
3967;SDS011;9221;42.646;23.380;2022-12-10T07:46:50;23.47;;;6.53;;
3967;SDS011;9221;42.646;23.380;2022-12-10T07:49:16;14.60;;;6.20;;
3967;SDS011;9221;42.646;23.380;2022-12-10T07:51:49;20.00;;;6.60;;
3967;SDS011;9221;42.646;23.380;2022-12-10T07:54:15;21.53;;;6.67;;
3967;SDS011;9221;42.646;23.380;2022-12-10T07:56:42;19.33;;;6.67;;
3967;SDS011;9221;42.646;23.380;2022-12-10T07:59:08;20.77;;;7.60;;
3967;SDS011;9221;42.646;23.380;2022-12-10T08:01:34;28.43;;;7.10;;
3967;SDS011;9221;42.646;23.380;2022-12-10T08:03:59;23.43;;;7.47;;
3967;SDS011;9221;42.646;23.380;2022-12-10T08:06:26;19.90;;;5.70;;
3967;SDS011;9221;42.646;23.380;2022-12-10T08:08:52;16.93;;;6.80;;
3967;SDS011;9221;42.646;23.380;2022-12-10T08:11:19;29.63;;;7.40;;
3967;SDS011;9221;42.646;23.380;2022-12-10T08:13:46;21.50;;;8.40;;
3967;SDS011;9221;42.646;23.380;2022-12-10T08:18:37;26.73;;;8.80;;
3967;SDS011;9221;42.646;23.380;2022-12-10T08:21:13;22.63;;;8.57;;
3967;SDS011;9221;42.646;23.380;2022-12-10T08:23:41;18.90;;;7.07;;
3967;SDS011;9221;42.646;23.380;2022-12-10T08:26:09;24.03;;;10.23;;
3967;SDS011;9221;42.646;23.380;2022-12-10T08:28:35;19.53;;;7.90;;
3967;SDS011;9221;42.646;23.380;2022-12-10T08:31:01;22.85;;;9.35;;
3967;SDS011;9221;42.646;23.380;2022-12-10T08:33:27;25.87;;;10.87;;
3967;SDS011;9221;42.646;23.380;2022-12-10T08:35:56;20.80;;;8.53;;
3967;SDS011;9221;42.646;23.380;2022-12-10T08:38:23;18.20;;;7.90;;
3967;SDS011;9221;42.646;23.380;2022-12-10T08:40:49;19.43;;;6.10;;
3967;SDS011;9221;42.646;23.380;2022-12-10T08:43:14;22.03;;;8.40;;
3967;SDS011;9221;42.646;23.380;2022-12-10T08:45:39;25.67;;;9.20;;
3967;SDS011;9221;42.646;23.380;2022-12-10T08:48:05;20.73;;;8.17;;
3967;SDS011;9221;42.646;23.380;2022-12-10T08:50:30;21.60;;;7.00;;
3967;SDS011;9221;42.646;23.380;2022-12-10T08:52:55;18.67;;;7.20;;
3967;SDS011;9221;42.646;23.380;2022-12-10T08:55:21;30.50;;;8.60;;
3967;SDS011;9221;42.646;23.380;2022-12-10T08:57:46;20.60;;;7.53;;
3967;SDS011;9221;42.646;23.380;2022-12-10T09:00:12;27.93;;;8.50;;
3967;SDS011;9221;42.646;23.380;2022-12-10T09:02:38;15.53;;;7.07;;
3967;SDS011;9221;42.646;23.380;2022-12-10T09:05:04;30.40;;;9.77;;
3967;SDS011;9221;42.646;23.380;2022-12-10T09:07:30;29.73;;;8.83;;
3967;SDS011;9221;42.646;23.380;2022-12-10T09:09:56;22.43;;;7.90;;
3967;SDS011;9221;42.646;23.380;2022-12-10T09:12:21;17.43;;;7.63;;
3967;SDS011;9221;42.646;23.380;2022-12-10T09:14:46;21.20;;;8.60;;
3967;SDS011;9221;42.646;23.380;2022-12-10T09:17:12;27.43;;;9.80;;
3967;SDS011;9221;42.646;23.380;2022-12-10T09:19:37;19.33;;;8.70;;
3967;SDS011;9221;42.646;23.380;2022-12-10T09:22:02;26.27;;;8.10;;
3967;SDS011;9221;42.646;23.380;2022-12-10T09:24:28;23.33;;;9.40;;
3967;SDS011;9221;42.646;23.380;2022-12-10T09:26:53;19.80;;;7.30;;
3967;SDS011;9221;42.646;23.380;2022-12-10T09:29:19;31.40;;;7.93;;
3967;SDS011;9221;42.646;23.380;2022-12-10T09:31:44;21.80;;;8.57;;
3967;SDS011;9221;42.646;23.380;2022-12-10T09:34:09;17.00;;;8.53;;
3967;SDS011;9221;42.646;23.380;2022-12-10T09:36:35;33.93;;;10.13;;
3967;SDS011;9221;42.646;23.380;2022-12-10T09:39:01;22.47;;;8.33;;
3967;SDS011;9221;42.646;23.380;2022-12-10T09:43:56;29.30;;;8.90;;
3967;SDS011;9221;42.646;23.380;2022-12-10T09:51:45;27.13;;;9.20;;
3967;SDS011;9221;42.646;23.380;2022-12-10T09:54:15;29.73;;;9.57;;
3967;SDS011;9221;42.646;23.380;2022-12-10T09:56:47;29.33;;;9.73;;
3967;SDS011;9221;42.646;23.380;2022-12-10T09:59:19;24.57;;;9.60;;
3967;SDS011;9221;42.646;23.380;2022-12-10T10:01:57;25.80;;;8.43;;
3967;SDS011;9221;42.646;23.380;2022-12-10T10:04:41;21.13;;;8.50;;
3967;SDS011;9221;42.646;23.380;2022-12-10T10:07:07;28.53;;;9.77;;
3967;SDS011;9221;42.646;23.380;2022-12-10T10:09:44;24.53;;;10.17;;
3967;SDS011;9221;42.646;23.380;2022-12-10T10:12:11;25.07;;;8.90;;
3967;SDS011;9221;42.646;23.380;2022-12-10T10:14:39;30.87;;;10.33;;
3967;SDS011;9221;42.646;23.380;2022-12-10T10:17:08;21.17;;;8.17;;
3967;SDS011;9221;42.646;23.380;2022-12-10T10:19:41;20.73;;;8.63;;
3967;SDS011;9221;42.646;23.380;2022-12-10T10:22:09;19.30;;;8.37;;
3967;SDS011;9221;42.646;23.380;2022-12-10T10:24:37;24.83;;;8.40;;
3967;SDS011;9221;42.646;23.380;2022-12-10T10:29:49;24.53;;;8.40;;
3967;SDS011;9221;42.646;23.380;2022-12-10T10:32:18;29.27;;;9.60;;
3967;SDS011;9221;42.646;23.380;2022-12-10T10:34:46;23.13;;;9.00;;
3967;SDS011;9221;42.646;23.380;2022-12-10T10:37:27;29.47;;;9.23;;
3967;SDS011;9221;42.646;23.380;2022-12-10T10:39:56;25.57;;;8.40;;
3967;SDS011;9221;42.646;23.380;2022-12-10T10:42:26;24.60;;;8.90;;
3967;SDS011;9221;42.646;23.380;2022-12-10T10:44:52;23.80;;;9.87;;
3967;SDS011;9221;42.646;23.380;2022-12-10T10:47:28;28.27;;;9.80;;
3967;SDS011;9221;42.646;23.380;2022-12-10T10:49:58;25.87;;;9.30;;
3967;SDS011;9221;42.646;23.380;2022-12-10T10:52:25;26.50;;;8.90;;
3967;SDS011;9221;42.646;23.380;2022-12-10T10:54:54;20.40;;;8.90;;
3967;SDS011;9221;42.646;23.380;2022-12-10T10:57:24;32.93;;;8.63;;
3967;SDS011;9221;42.646;23.380;2022-12-10T11:00:00;20.03;;;8.30;;
3967;SDS011;9221;42.646;23.380;2022-12-10T11:02:43;24.27;;;10.27;;
3967;SDS011;9221;42.646;23.380;2022-12-10T11:07:42;28.30;;;10.23;;
3967;SDS011;9221;42.646;23.380;2022-12-10T11:12:46;23.20;;;8.87;;
3967;SDS011;9221;42.646;23.380;2022-12-10T11:20:56;17.20;;;7.13;;
3967;SDS011;9221;42.646;23.380;2022-12-10T11:23:45;16.73;;;6.53;;
3967;SDS011;9221;42.646;23.380;2022-12-10T11:29:10;21.50;;;7.27;;
3967;SDS011;9221;42.646;23.380;2022-12-10T11:31:52;18.77;;;6.80;;
3967;SDS011;9221;42.646;23.380;2022-12-10T11:47:59;11.57;;;4.90;;
3967;SDS011;9221;42.646;23.380;2022-12-10T11:50:41;11.40;;;4.33;;
3967;SDS011;9221;42.646;23.380;2022-12-10T11:56:08;15.03;;;4.00;;
3967;SDS011;9221;42.646;23.380;2022-12-10T12:01:32;13.27;;;5.03;;
3967;SDS011;9221;42.646;23.380;2022-12-10T12:04:23;10.63;;;4.55;;
3967;SDS011;9221;42.646;23.380;2022-12-10T12:14:48;11.77;;;5.63;;
3967;SDS011;9221;42.646;23.380;2022-12-10T12:17:32;16.40;;;5.87;;
3967;SDS011;9221;42.646;23.380;2022-12-10T12:20:03;12.63;;;4.70;;
3967;SDS011;9221;42.646;23.380;2022-12-10T12:22:42;19.73;;;5.33;;
3967;SDS011;9221;42.646;23.380;2022-12-10T12:31:13;18.20;;;5.70;;
3967;SDS011;9221;42.646;23.380;2022-12-10T12:34:02;31.43;;;5.50;;
3967;SDS011;9221;42.646;23.380;2022-12-10T12:36:38;21.03;;;5.20;;
3967;SDS011;9221;42.646;23.380;2022-12-10T12:42:01;14.97;;;5.40;;
3967;SDS011;9221;42.646;23.380;2022-12-10T12:47:33;15.33;;;4.40;;
3967;SDS011;9221;42.646;23.380;2022-12-10T12:50:10;15.30;;;5.17;;
3967;SDS011;9221;42.646;23.380;2022-12-10T12:52:49;7.73;;;3.23;;
3967;SDS011;9221;42.646;23.380;2022-12-10T12:55:20;8.27;;;3.50;;
3967;SDS011;9221;42.646;23.380;2022-12-10T12:57:52;22.73;;;4.73;;
3967;SDS011;9221;42.646;23.380;2022-12-10T13:00:23;15.97;;;4.60;;
3967;SDS011;9221;42.646;23.380;2022-12-10T13:05:25;15.55;;;4.20;;
3967;SDS011;9221;42.646;23.380;2022-12-10T13:10:46;14.13;;;5.23;;
3967;SDS011;9221;42.646;23.380;2022-12-10T13:15:53;17.00;;;6.20;;
3967;SDS011;9221;42.646;23.380;2022-12-10T13:18:25;17.60;;;6.13;;
3967;SDS011;9221;42.646;23.380;2022-12-10T13:23:53;22.53;;;6.67;;
3967;SDS011;9221;42.646;23.380;2022-12-10T13:26:30;14.27;;;6.10;;
3967;SDS011;9221;42.646;23.380;2022-12-10T13:29:12;14.73;;;6.30;;
3967;SDS011;9221;42.646;23.380;2022-12-10T13:32:22;18.20;;;5.80;;
3967;SDS011;9221;42.646;23.380;2022-12-10T13:34:41;15.40;;;6.47;;
3967;SDS011;9221;42.646;23.380;2022-12-10T13:39:54;27.17;;;6.97;;
3967;SDS011;9221;42.646;23.380;2022-12-10T13:42:45;18.27;;;5.77;;
3967;SDS011;9221;42.646;23.380;2022-12-10T13:45:33;9.90;;;4.90;;
3967;SDS011;9221;42.646;23.380;2022-12-10T13:53:47;18.33;;;6.00;;
3967;SDS011;9221;42.646;23.380;2022-12-10T13:56:51;11.05;;;4.80;;
3967;SDS011;9221;42.646;23.380;2022-12-10T14:02:16;16.70;;;5.70;;
3967;SDS011;9221;42.646;23.380;2022-12-10T14:04:55;23.27;;;6.30;;
3967;SDS011;9221;42.646;23.380;2022-12-10T14:07:22;32.10;;;5.88;;
3967;SDS011;9221;42.646;23.380;2022-12-10T14:09:53;18.63;;;6.43;;
3967;SDS011;9221;42.646;23.380;2022-12-10T14:12:24;17.30;;;5.83;;
3967;SDS011;9221;42.646;23.380;2022-12-10T14:15:03;20.97;;;7.70;;
3967;SDS011;9221;42.646;23.380;2022-12-10T14:17:33;14.77;;;6.07;;
3967;SDS011;9221;42.646;23.380;2022-12-10T14:20:02;16.73;;;6.53;;
3967;SDS011;9221;42.646;23.380;2022-12-10T14:25:00;18.33;;;6.33;;
3967;SDS011;9221;42.646;23.380;2022-12-10T14:27:27;19.17;;;6.13;;
3967;SDS011;9221;42.646;23.380;2022-12-10T14:30:10;50.80;;;6.80;;
3967;SDS011;9221;42.646;23.380;2022-12-10T14:32:41;18.40;;;6.50;;
3967;SDS011;9221;42.646;23.380;2022-12-10T14:35:07;24.47;;;6.07;;
3967;SDS011;9221;42.646;23.380;2022-12-10T14:37:39;14.47;;;6.03;;
3967;SDS011;9221;42.646;23.380;2022-12-10T14:40:07;15.73;;;6.75;;
3967;SDS011;9221;42.646;23.380;2022-12-10T14:42:34;17.93;;;5.17;;
3967;SDS011;9221;42.646;23.380;2022-12-10T14:45:04;17.67;;;5.80;;
3967;SDS011;9221;42.646;23.380;2022-12-10T14:47:38;19.07;;;5.83;;
3967;SDS011;9221;42.646;23.380;2022-12-10T14:50:06;16.80;;;5.82;;
3967;SDS011;9221;42.646;23.380;2022-12-10T14:52:41;19.40;;;5.80;;
3967;SDS011;9221;42.646;23.380;2022-12-10T14:55:12;13.77;;;5.53;;
3967;SDS011;9221;42.646;23.380;2022-12-10T14:57:40;16.40;;;5.03;;
3967;SDS011;9221;42.646;23.380;2022-12-10T15:00:17;14.35;;;5.10;;
3967;SDS011;9221;42.646;23.380;2022-12-10T15:02:45;26.33;;;7.00;;
3967;SDS011;9221;42.646;23.380;2022-12-10T15:05:18;15.03;;;5.27;;
3967;SDS011;9221;42.646;23.380;2022-12-10T15:07:52;19.07;;;5.70;;
3967;SDS011;9221;42.646;23.380;2022-12-10T15:10:22;20.60;;;6.22;;
3967;SDS011;9221;42.646;23.380;2022-12-10T15:12:51;24.20;;;6.47;;
3967;SDS011;9221;42.646;23.380;2022-12-10T15:15:34;27.67;;;6.57;;
3967;SDS011;9221;42.646;23.380;2022-12-10T15:18:12;21.40;;;5.47;;
3967;SDS011;9221;42.646;23.380;2022-12-10T15:28:28;26.63;;;6.07;;
3967;SDS011;9221;42.646;23.380;2022-12-10T15:30:57;26.33;;;5.90;;
3967;SDS011;9221;42.646;23.380;2022-12-10T15:33:38;14.00;;;4.27;;
3967;SDS011;9221;42.646;23.380;2022-12-10T15:36:04;22.33;;;5.87;;
3967;SDS011;9221;42.646;23.380;2022-12-10T15:38:30;33.67;;;6.50;;
3967;SDS011;9221;42.646;23.380;2022-12-10T15:40:57;13.60;;;5.20;;
3967;SDS011;9221;42.646;23.380;2022-12-10T15:43:26;15.13;;;4.83;;
3967;SDS011;9221;42.646;23.380;2022-12-10T15:45:54;13.98;;;5.28;;
3967;SDS011;9221;42.646;23.380;2022-12-10T15:48:21;17.20;;;5.17;;
3967;SDS011;9221;42.646;23.380;2022-12-10T15:50:47;26.93;;;5.97;;
3967;SDS011;9221;42.646;23.380;2022-12-10T15:53:24;20.30;;;6.90;;
3967;SDS011;9221;42.646;23.380;2022-12-10T15:55:54;19.23;;;7.93;;
3967;SDS011;9221;42.646;23.380;2022-12-10T15:58:19;18.90;;;6.23;;
3967;SDS011;9221;42.646;23.380;2022-12-10T16:00:45;16.20;;;6.00;;
3967;SDS011;9221;42.646;23.380;2022-12-10T16:03:13;14.40;;;4.70;;
3967;SDS011;9221;42.646;23.380;2022-12-10T16:05:40;18.97;;;5.60;;
3967;SDS011;9221;42.646;23.380;2022-12-10T16:10:42;31.60;;;7.30;;
3967;SDS011;9221;42.646;23.380;2022-12-10T16:13:13;19.27;;;6.80;;
3967;SDS011;9221;42.646;23.380;2022-12-10T16:16:00;26.13;;;8.33;;
3967;SDS011;9221;42.646;23.380;2022-12-10T16:18:29;20.03;;;8.57;;
3967;SDS011;9221;42.646;23.380;2022-12-10T16:20:54;29.57;;;8.23;;
3967;SDS011;9221;42.646;23.380;2022-12-10T16:23:19;16.27;;;6.63;;
3967;SDS011;9221;42.646;23.380;2022-12-10T16:25:45;15.23;;;6.07;;
3967;SDS011;9221;42.646;23.380;2022-12-10T16:28:12;19.67;;;5.30;;
3967;SDS011;9221;42.646;23.380;2022-12-10T16:30:44;11.57;;;4.77;;
3967;SDS011;9221;42.646;23.380;2022-12-10T16:33:20;9.60;;;3.80;;
3967;SDS011;9221;42.646;23.380;2022-12-10T16:35:49;13.57;;;4.37;;
3967;SDS011;9221;42.646;23.380;2022-12-10T16:38:16;12.20;;;3.83;;
3967;SDS011;9221;42.646;23.380;2022-12-10T16:40:42;13.77;;;4.00;;
3967;SDS011;9221;42.646;23.380;2022-12-10T16:43:25;12.10;;;3.50;;
3967;SDS011;9221;42.646;23.380;2022-12-10T16:45:53;6.63;;;3.20;;
3967;SDS011;9221;42.646;23.380;2022-12-10T16:48:19;9.67;;;3.60;;
3967;SDS011;9221;42.646;23.380;2022-12-10T16:50:45;21.43;;;5.30;;
3967;SDS011;9221;42.646;23.380;2022-12-10T16:55:40;10.00;;;4.23;;
3967;SDS011;9221;42.646;23.380;2022-12-10T16:58:08;24.10;;;4.88;;
3967;SDS011;9221;42.646;23.380;2022-12-10T17:00:34;17.23;;;4.17;;
3967;SDS011;9221;42.646;23.380;2022-12-10T17:03:00;7.07;;;3.80;;
3967;SDS011;9221;42.646;23.380;2022-12-10T17:05:33;8.17;;;3.50;;
3967;SDS011;9221;42.646;23.380;2022-12-10T17:08:04;21.33;;;4.53;;
3967;SDS011;9221;42.646;23.380;2022-12-10T17:10:30;8.40;;;4.03;;